KEPH

Ephrata Municipal Airport

Ephrata, Washington, USA
METAR KEPH 211253Z AUTO 34009KT 10SM CLR M10/M16 A3032 RMK AO2 SLP289 T11001161
Observed Flight Rules
Feb-21 @ 12:53 UTC (28 minutes ago) Visual Flight Rules
Wind Visibility Clouds
340° at 9 knots 10 miles
  • Clear skies
Temperatures Readings
Current -10°C / 14°F
Dewpoint -16°C / 3°F
Humidity 62%
Altimeter 30.32" Hg
Pressure 1028.9 hPa
Elevation 383
METAR KEPH 211253Z AUTO 34009KT 10SM CLR M10/M16 A3032 RMK AO2 SLP289 T11001161
Observed Flight Rules
Feb-21 @ 12:53 UTC
(28 minutes ago)
VFR
Wind Visibility
340° at 9 knots 10 miles
Clouds
  • Clear skies
Temperature Dewpoint
-10°C / 14°F -16°C / 3°F
Humidity Altimeter Pressure
62% 30.32" Hg 1028.9 hPa